Rock Island, TN

3:53 PM CDT on July 28, 2016 (GMT -0500)
Rock Island | | Change Station

Elev 892 ft 35.78 °N, 85.61 °W | Updated 3 minutes ago

Overcast
Overcast
77.7 °F
Feels Like 80 °F
N
2.7
Wind Variable Wind from WSW

Today
High -- | Low -- °F
--% Chance of Precip.
Yesterday
High -- | Low -- °F
Precip. -- in
Pressure 29.92 in
Visibility 10.0 miles
Clouds Scattered Clouds 800 ft
Mostly Cloudy 1600 ft
Overcast 3700 ft
Heat Index 80 °F
Dew Point 76 °F
Humidity 95%
Rainfall 0.04 in
Snow Depth Not available.
5:47 AM 7:49 PM
Waning Crescent, 29% visible
METAR KSRB 282035Z AUTO 02004KT 10SM SCT008 BKN016 OVC037 24/23 A2992 RMK
Pressure 29.92 in
Visibility 10.0 miles
Clouds Scattered Clouds 800 ft
Mostly Cloudy 1600 ft
Overcast 3700 ft
Heat Index 80 °F
Dew Point 76 °F
Humidity 95%
Rainfall 0.04 in
Snow Depth Not available.
5:47 AM 7:49 PM
Waning Crescent, 29% visible
METAR KSRB 282035Z AUTO 02004KT 10SM SCT008 BKN016 OVC037 24/23 A2992 RMK

10-Day Weather Forecast

Almanac

Astronomy

Jul. 28, 2016 Rise Set
Actual Time
Civil Twilight
Nautical Twilight
Astronomical Twilight
Moon
Length of Visible Light
Length of Day
Tomorrow will be .
, % of the Moon is Illuminated

Today's Extremes

State Highs State Lows

Community

WunderPhotos

Upload Photos

1,928,206 photos uploaded!

WunderBlog® & News

Nearby

Air Quality

  Air Quality AQ Index Pollutant
Not available.

Snow Depth

Station Depth Elevation

Earthquake Activity

City Distance Mag. Time & Date
Minimum magnitude displayed is 2.5.

Coastal Water Temperatures

Place Temperature

Stations

Nearby Weather Stations

Station Location Temp. Windchill Dew Point Humidity Wind Precip. Elev Updated Type
                   

Watches & Warnings

There are currently no watches in effect.